createdAt,value
2019-05-22T00:00:11.765Z,14.64
2019-05-22T00:00:52.353Z,14.59
2019-05-22T00:01:32.819Z,14.63
2019-05-22T00:02:15.181Z,14.59
2019-05-22T00:02:55.923Z,14.64
2019-05-22T00:03:36.037Z,14.6
2019-05-22T00:04:17.065Z,14.61
2019-05-22T00:05:00.083Z,14.66
2019-05-22T00:05:42.149Z,14.6
2019-05-22T00:06:22.716Z,14.61
2019-05-22T00:07:03.299Z,14.64
2019-05-22T00:07:43.675Z,14.53
2019-05-22T00:08:26.423Z,14.59
2019-05-22T00:09:07.743Z,14.56
2019-05-22T00:09:48.980Z,14.57
2019-05-22T00:10:29.507Z,14.49
2019-05-22T00:11:13.576Z,14.52
2019-05-22T00:11:54.441Z,14.49
2019-05-22T00:12:46.004Z,14.53
2019-05-22T00:13:17.538Z,14.49
2019-05-22T00:13:59.021Z,14.54
2019-05-22T00:14:39.467Z,14.57
2019-05-22T00:15:20.049Z,14.46
2019-05-22T00:16:40.895Z,14.57
2019-05-22T00:17:21.277Z,14.42
2019-05-22T00:18:03.077Z,14.44
2019-05-22T00:18:45.222Z,14.41
2019-05-22T00:19:25.778Z,14.45
2019-05-22T00:20:06.108Z,14.46
2019-05-22T00:20:46.496Z,14.44
2019-05-22T00:21:26.950Z,14.45
2019-05-22T00:22:07.384Z,14.46
2019-05-22T00:22:47.797Z,14.48
2019-05-22T00:23:28.194Z,14.6
2019-05-22T00:24:08.588Z,14.66
2019-05-22T00:24:49.006Z,14.63
2019-05-22T00:25:29.377Z,14.59
2019-05-22T00:27:11.533Z,14.6
2019-05-22T00:29:00.569Z,14.59
2019-05-22T00:29:43.587Z,14.64
2019-05-22T00:30:24.039Z,14.63
2019-05-22T00:31:04.444Z,14.59
2019-05-22T00:31:44.857Z,14.59
2019-05-22T00:32:25.373Z,14.54
2019-05-22T00:33:05.884Z,14.54
2019-05-22T00:33:46.443Z,14.56
2019-05-22T00:34:26.723Z,14.6
2019-05-22T00:35:07.332Z,14.63
2019-05-22T00:35:47.803Z,14.59
2019-05-22T00:36:28.175Z,14.61
2019-05-22T00:37:09.214Z,14.66
2019-05-22T00:37:49.759Z,14.74
2019-05-22T00:38:30.397Z,14.63
2019-05-22T00:39:11.165Z,14.67
2019-05-22T00:39:51.778Z,14.69
2019-05-22T00:40:32.013Z,14.64
2019-05-22T00:41:12.455Z,14.61
2019-05-22T00:41:52.871Z,14.56
2019-05-22T00:42:33.285Z,14.61
2019-05-22T00:43:14.292Z,14.54
2019-05-22T00:43:54.195Z,14.52
2019-05-22T00:44:34.569Z,14.56
2019-05-22T00:45:14.982Z,14.57
2019-05-22T00:45:55.407Z,14.63
2019-05-22T00:46:35.869Z,14.6
2019-05-22T00:47:16.281Z,14.66
2019-05-22T00:47:56.700Z,14.6
2019-05-22T00:48:37.119Z,14.66
2019-05-22T00:49:17.553Z,14.66
2019-05-22T00:51:46.020Z,14.74
2019-05-22T00:52:28.305Z,14.61
2019-05-22T00:53:08.702Z,14.71
2019-05-22T00:53:49.190Z,14.56
2019-05-22T00:57:48.380Z,14.44
2019-05-22T00:58:34.323Z,14.41
2019-05-22T00:59:14.808Z,14.49
2019-05-22T00:59:55.416Z,14.48
2019-05-22T01:00:35.680Z,14.59
2019-05-22T01:01:16.088Z,14.56
2019-05-22T01:01:56.484Z,14.48
2019-05-22T01:02:36.977Z,14.49
2019-05-22T01:03:17.407Z,14.44
2019-05-22T01:03:57.871Z,14.52
2019-05-22T01:04:38.275Z,14.48
2019-05-22T01:05:18.667Z,14.35
2019-05-22T01:07:18.536Z,14.31
2019-05-22T01:08:02.157Z,14.2
2019-05-22T01:08:41.636Z,14.24
2019-05-22T01:09:22.373Z,14.27
2019-05-22T01:10:03.509Z,14.31
2019-05-22T01:10:43.308Z,14.21
2019-05-22T01:11:23.844Z,14.24
2019-05-22T01:12:05.146Z,14.17
2019-05-22T01:12:45.643Z,14.3
2019-05-22T01:13:26.099Z,14.3
2019-05-22T01:14:06.528Z,14.27
2019-05-22T01:14:48.025Z,14.24
2019-05-22T01:15:28.915Z,14.29
2019-05-22T01:16:09.470Z,14.26
2019-05-22T01:16:50.082Z,14.27
2019-05-22T01:20:06.524Z,14.34
2019-05-22T01:25:47.512Z,14.41
2019-05-22T01:26:36.006Z,14.48
2019-05-22T01:27:24.447Z,14.44
2019-05-22T01:28:14.984Z,14.48
2019-05-22T01:28:55.308Z,14.53
2019-05-22T01:29:35.715Z,14.41
2019-05-22T01:30:16.121Z,14.42
2019-05-22T01:30:56.516Z,14.44
2019-05-22T01:31:36.955Z,14.44
2019-05-22T01:32:17.403Z,14.53
2019-05-22T01:32:57.841Z,14.54
2019-05-22T01:33:38.234Z,14.52
2019-05-22T01:34:18.662Z,14.6
2019-05-22T01:34:59.078Z,14.59
2019-05-22T01:35:39.732Z,14.53
2019-05-22T01:36:20.239Z,14.59
2019-05-22T01:37:00.643Z,14.59
2019-05-22T01:37:41.039Z,14.66
2019-05-22T01:38:22.209Z,14.64
2019-05-22T01:39:02.956Z,14.63
2019-05-22T01:39:43.292Z,14.61
2019-05-22T01:40:23.747Z,14.69
2019-05-22T01:41:04.730Z,14.59
2019-05-22T01:41:45.227Z,14.6
2019-05-22T01:42:25.643Z,14.56
2019-05-22T01:43:06.015Z,14.46
2019-05-22T01:43:46.488Z,14.57
2019-05-22T01:44:26.893Z,14.54
2019-05-22T01:45:07.331Z,14.59
2019-05-22T01:45:48.146Z,14.56
2019-05-22T01:46:28.542Z,14.49
2019-05-22T01:47:08.951Z,14.53
2019-05-22T01:47:49.364Z,14.48
2019-05-22T01:48:30.705Z,14.46
2019-05-22T01:49:11.180Z,14.35
2019-05-22T01:49:51.597Z,14.44
2019-05-22T01:50:32.047Z,14.38
2019-05-22T01:51:12.491Z,14.29
2019-05-22T01:51:53.047Z,14.42
2019-05-22T01:52:33.699Z,14.36
2019-05-22T01:53:14.128Z,14.48
2019-05-22T01:54:35.087Z,14.38
2019-05-22T01:55:15.388Z,14.34
2019-05-22T01:55:55.830Z,14.39
2019-05-22T01:56:36.270Z,14.38
2019-05-22T01:57:16.742Z,14.38
2019-05-22T01:57:57.184Z,14.44
2019-05-22T01:58:37.625Z,14.38
2019-05-22T01:59:18.074Z,14.42
2019-05-22T01:59:58.509Z,14.31
2019-05-22T02:00:39.048Z,14.49
2019-05-22T02:01:19.451Z,14.42
2019-05-22T02:01:59.867Z,14.41
2019-05-22T02:02:40.290Z,14.42
2019-05-22T02:03:20.806Z,14.29
2019-05-22T02:04:01.227Z,14.41
2019-05-22T02:04:41.649Z,14.39
2019-05-22T02:05:22.111Z,14.36
2019-05-22T02:06:02.519Z,14.26
2019-05-22T02:06:43.697Z,14.39
2019-05-22T02:07:24.127Z,14.31
2019-05-22T02:08:04.571Z,14.39
2019-05-22T02:08:45.011Z,14.36
2019-05-22T02:09:25.416Z,14.3
2019-05-22T02:10:06.975Z,14.34
2019-05-22T02:10:47.380Z,14.3
2019-05-22T02:11:27.758Z,14.21
2019-05-22T02:12:08.201Z,14.35
2019-05-22T02:12:48.803Z,14.17
2019-05-22T02:13:29.150Z,14.21
2019-05-22T02:14:09.602Z,14.26
2019-05-22T02:14:50.025Z,14.16
2019-05-22T02:15:31.012Z,14.27
2019-05-22T02:16:11.467Z,14.16
2019-05-22T02:16:56.445Z,14.31
2019-05-22T02:17:32.327Z,14.23
2019-05-22T02:18:12.716Z,14.23
2019-05-22T02:18:53.217Z,14.24
2019-05-22T02:19:33.743Z,14.3
2019-05-22T02:20:55.102Z,14.2
2019-05-22T02:21:35.640Z,14.26
2019-05-22T02:22:16.151Z,14.23
2019-05-22T02:22:56.682Z,14.24
2019-05-22T02:23:37.138Z,14.2
2019-05-22T02:24:17.565Z,14.21
2019-05-22T02:24:57.965Z,14.17
2019-05-22T02:25:38.426Z,14.08
2019-05-22T02:26:18.845Z,14.11
2019-05-22T02:26:59.302Z,14.04
2019-05-22T02:27:39.737Z,14.05
2019-05-22T02:28:20.109Z,14.05
2019-05-22T02:29:00.558Z,14.02
2019-05-22T02:29:40.996Z,14.12
2019-05-22T02:30:21.402Z,14.06
2019-05-22T02:31:01.807Z,14.01
2019-05-22T02:33:03.331Z,14.02
2019-05-22T02:33:49.393Z,13.87
2019-05-22T02:34:29.423Z,13.86
2019-05-22T02:35:09.809Z,13.83
2019-05-22T02:35:50.338Z,13.91
2019-05-22T02:36:30.794Z,13.93
2019-05-22T02:37:11.177Z,13.9
2019-05-22T02:37:51.607Z,13.84
2019-05-22T02:38:32.286Z,13.83
2019-05-22T02:39:12.731Z,13.88
2019-05-22T02:39:53.149Z,13.9
2019-05-22T02:40:34.260Z,13.9
2019-05-22T02:41:14.647Z,13.98
2019-05-22T02:41:55.162Z,13.94
2019-05-22T02:42:35.665Z,13.93
2019-05-22T02:43:16.233Z,13.94
2019-05-22T02:43:56.547Z,14.01
2019-05-22T02:44:36.935Z,14.08
2019-05-22T02:45:17.558Z,14.06
2019-05-22T02:45:57.961Z,13.99
2019-05-22T02:46:38.394Z,14.04
2019-05-22T02:47:21.233Z,13.98
2019-05-22T02:47:59.271Z,13.93
2019-05-22T02:48:42.239Z,13.9
2019-05-22T02:51:09.181Z,14.02
2019-05-22T02:52:41.568Z,13.86
2019-05-22T02:53:31.128Z,13.96
2019-05-22T02:54:11.260Z,13.93
2019-05-22T02:54:51.744Z,13.96
2019-05-22T02:55:32.169Z,13.96
2019-05-22T02:56:12.739Z,13.91
2019-05-22T02:56:53.422Z,13.98
2019-05-22T02:57:33.806Z,13.87
2019-05-22T02:58:14.346Z,13.9
2019-05-22T02:58:54.822Z,13.98
2019-05-22T02:59:35.304Z,13.98
2019-05-22T03:00:15.841Z,13.94
2019-05-22T03:00:56.314Z,13.96
2019-05-22T03:01:37.544Z,13.96
2019-05-22T03:02:17.966Z,13.93
2019-05-22T03:02:58.376Z,13.87
2019-05-22T03:04:19.281Z,13.88
2019-05-22T03:04:59.779Z,13.8
2019-05-22T03:05:40.262Z,13.88
2019-05-22T03:07:01.698Z,13.88
2019-05-22T03:07:42.161Z,13.96
2019-05-22T03:08:22.700Z,13.93
2019-05-22T03:09:03.325Z,13.93
2019-05-22T03:09:46.608Z,13.94
2019-05-22T03:10:24.339Z,14.02
2019-05-22T03:11:04.745Z,13.99
2019-05-22T03:11:45.169Z,14.04
2019-05-22T03:12:25.620Z,14.01
2019-05-22T03:13:06.097Z,13.99
2019-05-22T03:13:46.513Z,13.94
2019-05-22T03:14:27.192Z,13.86
2019-05-22T03:15:07.580Z,13.88
2019-05-22T03:15:48.004Z,13.87
2019-05-22T03:16:28.513Z,13.81
2019-05-22T03:17:08.916Z,13.88
2019-05-22T03:17:49.735Z,13.83
2019-05-22T03:18:30.150Z,13.79
2019-05-22T03:19:10.667Z,13.83
2019-05-22T03:19:51.250Z,13.73
2019-05-22T03:20:31.719Z,13.75
2019-05-22T03:21:12.119Z,13.72
2019-05-22T03:21:52.505Z,13.75
2019-05-22T03:22:32.915Z,13.84
2019-05-22T03:23:13.322Z,13.65
2019-05-22T03:23:53.795Z,13.75
2019-05-22T03:24:34.175Z,13.69
2019-05-22T03:25:14.765Z,13.65
2019-05-22T03:25:55.327Z,13.63
2019-05-22T03:26:35.835Z,13.53
2019-05-22T03:27:16.220Z,13.55
2019-05-22T03:27:56.755Z,13.55
2019-05-22T03:28:37.250Z,13.51
2019-05-22T03:29:17.641Z,13.53
2019-05-22T03:29:58.167Z,13.46
2019-05-22T03:30:38.716Z,13.47
2019-05-22T03:31:19.117Z,13.5
2019-05-22T03:31:59.538Z,13.48
2019-05-22T03:32:43.512Z,13.61
2019-05-22T03:34:01.794Z,13.55
2019-05-22T03:34:42.210Z,13.57
2019-05-22T03:35:22.683Z,13.55
2019-05-22T03:36:03.023Z,13.47
2019-05-22T03:36:43.479Z,13.51
2019-05-22T03:37:23.883Z,13.54
2019-05-22T03:38:04.332Z,13.59
2019-05-22T03:38:45.209Z,13.62
2019-05-22T03:39:25.540Z,13.57
2019-05-22T03:40:05.975Z,13.61
2019-05-22T03:40:46.345Z,13.57
2019-05-22T03:41:26.956Z,13.5
2019-05-22T03:42:07.443Z,13.53
2019-05-22T03:42:47.908Z,13.47
2019-05-22T03:43:28.367Z,13.54
2019-05-22T03:44:09.478Z,13.53
2019-05-22T03:44:49.841Z,13.51
2019-05-22T03:45:30.314Z,13.59
2019-05-22T03:46:10.906Z,13.46
2019-05-22T03:46:51.708Z,13.55
2019-05-22T03:47:32.093Z,13.44
2019-05-22T03:48:12.867Z,13.51
2019-05-22T03:48:53.461Z,13.5
2019-05-22T03:49:33.808Z,13.48
2019-05-22T03:50:14.546Z,13.44
2019-05-22T03:50:55.117Z,13.5
2019-05-22T03:51:35.806Z,13.51
2019-05-22T03:52:16.256Z,13.46
2019-05-22T03:52:56.733Z,13.46
2019-05-22T03:53:37.173Z,13.48
2019-05-22T03:54:17.676Z,13.55
2019-05-22T03:54:58.347Z,13.61
2019-05-22T03:55:38.782Z,13.5
2019-05-22T03:56:19.430Z,13.47
2019-05-22T03:56:59.877Z,13.51
2019-05-22T03:57:40.340Z,13.46
2019-05-22T03:58:20.753Z,13.57
2019-05-22T03:59:01.192Z,13.55
2019-05-22T03:59:41.602Z,13.54
2019-05-22T04:00:23.247Z,13.55
2019-05-22T04:01:03.950Z,13.54
2019-05-22T04:01:44.895Z,13.46
2019-05-22T04:02:25.716Z,13.43
2019-05-22T04:03:06.457Z,13.46
2019-05-22T04:03:46.991Z,13.44
2019-05-22T04:04:27.505Z,13.48
2019-05-22T04:05:07.927Z,13.48
2019-05-22T04:06:29.773Z,13.47
2019-05-22T04:07:10.169Z,13.57
2019-05-22T04:07:50.606Z,13.55
2019-05-22T04:08:31.964Z,13.61
2019-05-22T04:09:12.392Z,13.61
2019-05-22T04:09:53.049Z,13.57
2019-05-22T04:10:33.478Z,13.59
2019-05-22T04:11:14.286Z,13.55
2019-05-22T04:11:54.798Z,13.59
2019-05-22T04:12:35.642Z,13.51
2019-05-22T04:13:16.043Z,13.47
2019-05-22T04:13:56.518Z,13.47
2019-05-22T04:14:36.843Z,13.48
2019-05-22T04:15:17.286Z,13.32
2019-05-22T04:15:58.023Z,13.29
2019-05-22T04:16:39.474Z,13.29
2019-05-22T04:17:19.977Z,13.25
2019-05-22T04:18:00.321Z,13.24
2019-05-22T04:18:40.791Z,13.24
2019-05-22T04:19:21.379Z,13.36
2019-05-22T04:20:02.050Z,13.35
2019-05-22T04:20:43.503Z,13.44
2019-05-22T04:21:24.168Z,13.46
2019-05-22T04:22:04.820Z,13.47
2019-05-22T04:22:45.326Z,13.36
2019-05-22T04:23:25.763Z,13.39
2019-05-22T04:24:06.276Z,13.48
2019-05-22T04:24:46.720Z,13.46
2019-05-22T04:25:27.160Z,13.5
2019-05-22T04:26:07.577Z,13.55
2019-05-22T04:26:48.039Z,13.48
2019-05-22T04:27:28.399Z,13.57
2019-05-22T05:09:21.870Z,13.13
2019-05-22T05:11:11.193Z,13.13
2019-05-22T05:11:53.973Z,13.13
2019-05-22T05:12:35.077Z,13.24
2019-05-22T05:13:15.522Z,13.21
2019-05-22T05:13:55.925Z,13.27
2019-05-22T05:14:36.417Z,13.25
2019-05-22T05:15:57.695Z,13.19
2019-05-22T05:16:38.304Z,13.22
2019-05-22T05:18:40.929Z,13.21
2019-05-22T05:20:45.057Z,13.43
2019-05-22T05:21:25.439Z,13.36
2019-05-22T05:22:05.862Z,13.47
2019-05-22T05:22:46.310Z,13.47
2019-05-22T05:23:26.720Z,13.57
2019-05-22T05:24:07.143Z,13.51
2019-05-22T05:24:47.457Z,13.55
2019-05-22T05:25:27.876Z,13.61
2019-05-22T05:30:18.217Z,13.93
2019-05-22T05:35:10.650Z,13.94
2019-05-22T05:41:52.534Z,14.29
2019-05-22T05:43:50.215Z,14.3
2019-05-22T05:44:30.400Z,14.31
2019-05-22T05:45:13.682Z,14.31
2019-05-22T05:46:07.132Z,14.29
2019-05-22T05:46:48.806Z,14.42
2019-05-22T05:47:29.227Z,14.39
2019-05-22T05:48:09.671Z,14.38
2019-05-22T05:48:50.282Z,14.42
2019-05-22T05:49:30.808Z,14.39
2019-05-22T05:50:13.218Z,14.45
2019-05-22T05:50:55.492Z,14.48
2019-05-22T05:51:35.874Z,14.45
2019-05-22T05:52:17.323Z,14.42
2019-05-22T05:53:13.027Z,14.44
2019-05-22T05:54:00.625Z,14.45
2019-05-22T05:54:41.942Z,14.44
2019-05-22T05:55:24.134Z,14.42
2019-05-22T05:56:04.690Z,14.44
2019-05-22T05:56:45.482Z,14.46
2019-05-22T05:57:27.669Z,14.56
2019-05-22T05:58:08.216Z,14.48
2019-05-22T05:58:51.438Z,14.45
2019-05-22T05:59:33.142Z,14.52
2019-05-22T06:00:14.446Z,14.52
2019-05-22T06:00:55.386Z,14.52
2019-05-22T06:01:36.151Z,14.52
2019-05-22T06:02:17.512Z,14.41
2019-05-22T06:02:57.483Z,14.52
2019-05-22T06:03:37.897Z,14.57
2019-05-22T06:04:32.117Z,14.57
2019-05-22T06:04:58.751Z,14.59
2019-05-22T06:05:39.126Z,14.56
2019-05-22T06:06:19.546Z,14.53
2019-05-22T06:07:01.949Z,14.42
2019-05-22T06:07:40.588Z,14.46
2019-05-22T06:08:20.964Z,14.36
2019-05-22T06:09:01.399Z,14.36
2019-05-22T06:09:42.284Z,14.31
2019-05-22T06:10:25.047Z,14.35
2019-05-22T06:11:05.279Z,14.31
2019-05-22T06:11:45.702Z,14.34
2019-05-22T06:12:27.693Z,14.39
2019-05-22T06:13:08.661Z,14.35
2019-05-22T06:13:48.528Z,14.34
2019-05-22T06:14:28.988Z,14.39
2019-05-22T06:15:09.713Z,14.44
2019-05-22T06:15:50.133Z,14.39
2019-05-22T06:16:30.543Z,14.48
2019-05-22T06:17:10.941Z,14.41
2019-05-22T06:17:51.380Z,14.45
2019-05-22T06:18:32.744Z,14.39
2019-05-22T06:19:13.505Z,14.38
2019-05-22T06:19:53.980Z,14.46
2019-05-22T06:20:34.658Z,14.42
2019-05-22T06:21:15.149Z,14.46
2019-05-22T06:21:55.583Z,14.45
2019-05-22T06:22:35.972Z,14.36
2019-05-22T06:23:18.305Z,14.49
2019-05-22T06:23:59.167Z,14.49
2019-05-22T06:24:39.545Z,14.44
2019-05-22T06:25:20.061Z,14.48
2019-05-22T06:26:00.608Z,14.53
2019-05-22T06:26:40.798Z,14.61
2019-05-22T06:27:21.208Z,14.53
2019-05-22T06:28:02.927Z,14.6
2019-05-22T06:28:43.355Z,14.61
2019-05-22T06:29:27.742Z,14.57
2019-05-22T06:30:06.503Z,14.61
2019-05-22T06:30:46.932Z,14.61
2019-05-22T06:31:27.307Z,14.71
2019-05-22T06:32:09.737Z,14.75
2019-05-22T06:32:51.421Z,14.72
2019-05-22T06:33:32.085Z,14.72
2019-05-22T06:34:13.390Z,14.6
2019-05-22T06:34:54.553Z,14.67
2019-05-22T06:35:34.210Z,14.67
2019-05-22T06:36:14.734Z,14.8
2019-05-22T06:36:55.603Z,14.74
2019-05-22T06:37:36.038Z,14.82
2019-05-22T06:38:16.531Z,14.79
2019-05-22T06:38:57.050Z,14.8
2019-05-22T06:39:41.871Z,14.75
2019-05-22T06:40:23.162Z,14.74
2019-05-22T06:41:02.677Z,14.72
2019-05-22T06:41:43.252Z,14.82
2019-05-22T06:43:05.432Z,14.82
2019-05-22T06:43:45.847Z,14.82
2019-05-22T06:44:26.937Z,14.87
2019-05-22T06:45:10.074Z,14.94
2019-05-22T06:45:50.487Z,14.86
2019-05-22T06:46:30.913Z,14.91
2019-05-22T06:47:11.924Z,14.94
2019-05-22T06:47:52.299Z,14.94
2019-05-22T06:48:32.682Z,14.93
2019-05-22T06:49:13.134Z,14.91
2019-05-22T06:49:53.581Z,15
2019-05-22T06:50:34.012Z,14.98
2019-05-22T06:51:19.291Z,14.98
2019-05-22T06:51:56.983Z,14.9
2019-05-22T06:52:37.589Z,14.9
2019-05-22T06:53:18.318Z,14.91
2019-05-22T06:53:59.489Z,14.9
2019-05-22T06:54:39.863Z,14.9
2019-05-22T06:55:20.487Z,14.91
2019-05-22T06:56:00.918Z,14.97
2019-05-22T06:56:41.318Z,15
2019-05-22T06:57:21.803Z,14.94
2019-05-22T06:58:02.701Z,14.97
2019-05-22T06:58:42.978Z,15.03
2019-05-22T06:59:25.255Z,15.01
2019-05-22T07:00:14.816Z,15
2019-05-22T07:00:45.950Z,15.09
2019-05-22T07:01:26.596Z,15.18
2019-05-22T07:02:07.081Z,15.27
2019-05-22T07:02:55.197Z,15.19
2019-05-22T07:03:56.395Z,15.28
2019-05-22T07:06:06.735Z,15.38
2019-05-22T07:06:47.327Z,15.38
2019-05-22T07:07:28.179Z,15.28
2019-05-22T07:08:08.839Z,15.34
2019-05-22T07:09:03.984Z,15.41
2019-05-22T07:09:45.661Z,15.37
2019-05-22T07:10:30.105Z,15.44
2019-05-22T07:11:10.809Z,15.43
2019-05-22T07:11:50.467Z,15.38
2019-05-22T07:27:08.595Z,15.89
2019-05-22T07:30:33.540Z,15.81
2019-05-22T07:38:38.312Z,16.06
2019-05-22T07:39:20.278Z,16.16
2019-05-22T07:40:00.701Z,16.17
2019-05-22T07:40:41.161Z,16.11
2019-05-22T07:41:21.585Z,16.1
2019-05-22T07:42:03.955Z,16.11
2019-05-22T07:44:22.065Z,16.22
2019-05-22T07:45:07.711Z,16.17
2019-05-22T07:45:48.447Z,16.27
2019-05-22T07:46:34.651Z,16.22
2019-05-22T07:47:19.391Z,16.23
2019-05-22T07:48:02.967Z,16.3
2019-05-22T07:48:44.123Z,16.26
2019-05-22T07:49:24.967Z,16.36
2019-05-22T07:50:07.378Z,16.29
2019-05-22T07:50:49.346Z,16.34
2019-05-22T07:51:30.620Z,16.34
2019-05-22T07:52:11.149Z,16.47
2019-05-22T07:53:32.072Z,16.45
2019-05-22T07:54:12.467Z,16.42
2019-05-22T07:54:54.869Z,16.42
2019-05-22T07:55:37.203Z,16.29
2019-05-22T07:56:17.584Z,16.34
2019-05-22T07:56:58.858Z,16.37
2019-05-22T07:57:39.573Z,16.3
2019-05-22T07:58:20.830Z,16.32
2019-05-22T07:59:01.320Z,16.36
2019-05-22T07:59:43.498Z,16.36
2019-05-22T08:00:25.110Z,16.29
2019-05-22T08:01:05.472Z,16.29
2019-05-22T08:01:48.554Z,16.32
2019-05-22T08:02:29.756Z,16.42
2019-05-22T08:03:09.616Z,16.51
2019-05-22T08:03:49.980Z,16.45
2019-05-22T08:04:36.057Z,16.48
2019-05-22T08:05:19.722Z,16.32
2019-05-22T08:06:42.394Z,16.37
2019-05-22T08:07:22.765Z,16.33
2019-05-22T08:08:03.184Z,16.32
2019-05-22T08:08:45.391Z,16.47
2019-05-22T08:09:25.849Z,16.44
2019-05-22T08:10:06.779Z,16.51
2019-05-22T08:10:48.138Z,16.55
2019-05-22T08:11:28.753Z,16.67
2019-05-22T08:12:12.693Z,16.65
2019-05-22T08:12:53.244Z,16.7
2019-05-22T08:13:33.627Z,16.7
2019-05-22T08:14:15.361Z,16.72
2019-05-22T08:14:57.402Z,16.81
2019-05-22T08:15:37.994Z,16.95
2019-05-22T08:16:18.801Z,16.96
2019-05-22T08:16:59.283Z,16.91
2019-05-22T08:17:42.846Z,16.88
2019-05-22T08:18:25.199Z,16.88
2019-05-22T08:19:05.737Z,16.77
2019-05-22T08:19:46.314Z,16.82
2019-05-22T08:20:26.886Z,16.8
2019-05-22T08:21:08.040Z,16.82
2019-05-22T08:21:49.249Z,16.84
2019-05-22T08:22:29.873Z,16.82
2019-05-22T08:23:13.900Z,16.87
2019-05-22T08:23:54.361Z,16.82
2019-05-22T08:24:35.841Z,16.95
2019-05-22T08:25:19.553Z,16.92
2019-05-22T08:26:00.880Z,16.95
2019-05-22T08:26:53.681Z,17.09
2019-05-22T08:27:21.031Z,17.09
2019-05-22T08:28:42.320Z,17.27
2019-05-22T08:29:23.862Z,17.27
2019-05-22T08:30:04.846Z,17.4
2019-05-22T08:30:46.270Z,17.32
2019-05-22T08:31:25.979Z,17.36
2019-05-22T08:32:06.464Z,17.38
2019-05-22T08:32:46.859Z,17.46
2019-05-22T08:33:29.076Z,17.51
2019-05-22T08:34:09.746Z,17.49
2019-05-22T08:34:51.314Z,17.51
2019-05-22T08:35:31.036Z,17.65
2019-05-22T08:36:14.047Z,17.71
2019-05-22T08:36:54.912Z,17.71
2019-05-22T08:37:36.545Z,17.81
2019-05-22T08:38:17.753Z,17.92
2019-05-22T08:38:58.162Z,17.94
2019-05-22T08:39:40.373Z,17.99
2019-05-22T08:40:22.404Z,18.04
2019-05-22T08:41:03.646Z,18.13
2019-05-22T08:41:43.962Z,18.2
2019-05-22T08:42:24.286Z,18.26
2019-05-22T08:43:06.720Z,18.23
2019-05-22T08:44:11.872Z,18.26
2019-05-22T08:44:28.593Z,18.26
2019-05-22T08:45:09.031Z,18.28
2019-05-22T08:45:50.522Z,18.34
2019-05-22T08:46:31.083Z,18.38
2019-05-22T08:47:12.981Z,18.36
2019-05-22T08:47:53.513Z,18.35
2019-05-22T08:48:33.924Z,18.35
2019-05-22T08:49:21.950Z,18.34
2019-05-22T08:50:05.049Z,18.42
2019-05-22T08:50:46.453Z,18.31
2019-05-22T08:51:28.876Z,18.36
2019-05-22T08:52:22.386Z,18.29
2019-05-22T08:52:51.731Z,18.29
2019-05-22T08:53:46.490Z,18.36
2019-05-22T08:56:38.040Z,18.35
2019-05-22T08:57:21.577Z,18.35
2019-05-22T08:58:04.113Z,18.47
2019-05-22T08:58:46.275Z,18.29
2019-05-22T08:59:27.639Z,18.34
2019-05-22T09:00:12.437Z,18.39
2019-05-22T09:00:50.650Z,18.44
2019-05-22T09:01:31.191Z,18.46
2019-05-22T09:02:15.245Z,18.62
2019-05-22T09:02:58.309Z,18.57
2019-05-22T09:03:38.782Z,18.66
2019-05-22T09:04:19.314Z,18.57
2019-05-22T09:04:59.852Z,18.68
2019-05-22T09:05:40.429Z,18.78
2019-05-22T09:06:21.610Z,18.87
2019-05-22T09:07:02.129Z,18.83
2019-05-22T09:07:42.826Z,18.83
2019-05-22T09:08:25.447Z,18.89
2019-05-22T09:09:05.793Z,18.96
2019-05-22T09:09:46.214Z,19.01
2019-05-22T09:13:27.378Z,19.16
2019-05-22T09:15:25.724Z,19.32
2019-05-22T09:16:06.931Z,19.31
2019-05-22T09:16:48.209Z,19.38
2019-05-22T09:17:28.793Z,19.39
2019-05-22T09:18:10.111Z,19.49
2019-05-22T09:18:51.029Z,19.53
2019-05-22T09:19:32.409Z,19.6
2019-05-22T09:22:54.917Z,20.05
2019-05-22T09:23:35.719Z,20.08
2019-05-22T09:24:16.172Z,20.25
2019-05-22T09:24:56.808Z,20.27
2019-05-22T09:25:39.848Z,20.46
2019-05-22T09:26:20.210Z,20.46
2019-05-22T09:27:03.229Z,20.42
2019-05-22T09:28:24.185Z,20.38
2019-05-22T09:29:05.112Z,20.33
2019-05-22T09:29:46.283Z,20.27
2019-05-22T09:30:26.826Z,20.31
2019-05-22T09:31:07.144Z,20.27
2019-05-22T09:36:45.842Z,21.48
2019-05-22T09:37:29.421Z,21.68
2019-05-22T09:38:09.909Z,21.74
2019-05-22T09:38:52.683Z,21.82
2019-05-22T09:39:32.411Z,21.96
2019-05-22T09:40:14.293Z,21.96
2019-05-22T09:40:56.459Z,22.12
2019-05-22T09:41:37.130Z,22.23
2019-05-22T09:42:17.479Z,22.35
2019-05-22T09:42:58.861Z,22.48
2019-05-22T09:43:42.887Z,22.52
2019-05-22T09:44:23.976Z,22.56
2019-05-22T09:49:17.589Z,22.88
2019-05-22T09:50:00.186Z,23.03
2019-05-22T09:50:41.277Z,23.14
2019-05-22T09:51:21.831Z,23.14
2019-05-22T09:52:02.156Z,23.16
2019-05-22T09:52:56.137Z,23.31
2019-05-22T09:53:26.564Z,23.38
2019-05-22T09:54:07.069Z,23.54
2019-05-22T09:54:47.568Z,23.67
2019-05-22T09:55:29.760Z,23.68
2019-05-22T09:56:10.544Z,23.77
2019-05-22T09:56:51.586Z,23.86
2019-05-22T09:57:32.238Z,23.96
2019-05-22T09:58:12.789Z,24.12
2019-05-22T09:58:55.352Z,24.18
2019-05-22T09:59:37.269Z,24.23
2019-05-22T10:03:30.733Z,24.49
2019-05-22T10:04:14.034Z,24.59
2019-05-22T10:04:55.405Z,24.6
2019-05-22T10:05:36.050Z,24.74
2019-05-22T10:06:17.395Z,24.92
2019-05-22T10:06:58.323Z,24.92
2019-05-22T10:07:55.732Z,25.11
2019-05-22T10:08:28.112Z,25.23
2019-05-22T10:09:12.706Z,25.36
2019-05-22T10:09:53.713Z,25.36
2019-05-22T10:10:35.228Z,25.41
2019-05-22T10:11:19.904Z,25.36
2019-05-22T10:12:01.048Z,25.34
2019-05-22T10:12:46.437Z,25.36
2019-05-22T10:13:29.458Z,25.39
2019-05-22T10:14:10.234Z,25.36
2019-05-22T10:14:51.236Z,25.38
2019-05-22T10:15:33.183Z,25.42
2019-05-22T10:26:03.335Z,26.19
2019-05-22T10:26:43.480Z,26.35
2019-05-22T10:27:24.555Z,26.49
2019-05-22T10:28:06.232Z,26.53
2019-05-22T10:28:47.256Z,26.61
2019-05-22T10:29:29.829Z,26.66
2019-05-22T11:08:48.235Z,26.86
2019-05-22T11:09:31.292Z,26.84
2019-05-22T11:10:12.099Z,26.97
2019-05-22T11:10:54.470Z,27.08
2019-05-22T11:11:36.442Z,27.12
2019-05-22T11:12:17.980Z,27.2
2019-05-22T11:12:58.388Z,26.96
2019-05-22T11:13:41.388Z,26.87
2019-05-22T11:14:21.748Z,26.88
2019-05-22T11:15:02.101Z,26.78
2019-05-22T11:15:42.831Z,26.69
2019-05-22T11:16:23.214Z,26.68
2019-05-22T11:17:04.740Z,26.71
2019-05-22T11:17:49.288Z,26.61
2019-05-22T11:18:29.750Z,26.72
2019-05-22T11:19:11.258Z,26.78
2019-05-22T11:19:53.001Z,26.9
2019-05-22T11:20:33.345Z,26.84
2019-05-22T11:21:16.476Z,26.86
2019-05-22T11:21:58.559Z,27.02
2019-05-22T11:22:38.952Z,27.03
2019-05-22T11:23:19.757Z,27.08
2019-05-22T11:24:01.902Z,27.16
2019-05-22T11:24:45.311Z,27.21
2019-05-22T11:25:26.002Z,27.31
2019-05-22T11:26:07.232Z,27.38
2019-05-22T11:26:51.595Z,27.24
2019-05-22T11:27:32.076Z,27.39
2019-05-22T11:28:16.513Z,27.38
2019-05-22T11:28:57.714Z,27.35
2019-05-22T11:29:54.032Z,27.49
2019-05-22T11:30:35.395Z,27.58
2019-05-22T11:31:15.876Z,27.58
2019-05-22T11:32:01.996Z,27.63
2019-05-22T11:32:42.286Z,27.81
2019-05-22T11:33:25.815Z,27.88
2019-05-22T11:34:06.240Z,27.91
2019-05-22T11:34:48.544Z,27.87
2019-05-22T11:35:31.424Z,27.88
2019-05-22T11:36:17.416Z,27.74
2019-05-22T11:36:59.775Z,27.31
2019-05-22T11:37:41.893Z,27.38
2019-05-22T11:38:22.319Z,27.39
2019-05-22T11:39:02.759Z,27.35
2019-05-22T11:39:46.086Z,27.34
2019-05-22T11:40:40.350Z,27.25
2019-05-22T11:41:25.835Z,27.35
2019-05-22T11:42:06.339Z,27.21
2019-05-22T11:42:49.210Z,27.39
2019-05-22T11:43:34.563Z,27.49
2019-05-22T11:44:15.315Z,27.4
2019-05-22T11:44:58.594Z,27.52
2019-05-22T11:45:44.413Z,27.5
2019-05-22T11:46:24.150Z,27.55
2019-05-22T11:47:05.281Z,27.62
2019-05-22T11:47:45.741Z,27.84
2019-05-22T11:48:26.152Z,27.88
2019-05-22T11:49:07.232Z,28.02
2019-05-22T11:49:48.533Z,28.08
2019-05-22T11:50:29.631Z,28.21
2019-05-22T11:51:11.248Z,28.24
2019-05-22T11:51:55.326Z,28.27
2019-05-22T11:52:36.077Z,28.38
2019-05-22T11:53:26.768Z,28.43
2019-05-22T11:54:09.501Z,28.38
2019-05-22T11:54:48.589Z,28.23
2019-05-22T12:14:37.561Z,28.4
2019-05-22T12:15:18.394Z,28.35
2019-05-22T12:16:01.376Z,28.4
2019-05-22T12:16:41.924Z,28.36
2019-05-22T12:17:37.165Z,28.35
2019-05-22T12:18:05.588Z,28.25
2019-05-22T12:18:46.048Z,28.39